Weather History for Learmonth, WE

Change the Weather History Date:

Monday, January 6, 2014

  Actual Average Record
Temperature  
Mean Temperature 94 °F -  
Max Temperature 115 °F 97 °F 115 °F (2014)
Min Temperature 73 °F 71 °F 68 °F (1999)
Cooling Degree Days 29    
Growing Degree Days 44 (Base 50)    
Moisture  
Dew Point 49 °F    
Average Humidity 27    
Maximum Humidity 61    
Minimum Humidity 4    
Precipitation  
Precipitation 0.00 in 0.03 in - ()
Sea Level Pressure  
Sea Level Pressure 29.76 in    
Wind  
Wind Speed 12 mph ()    
Max Wind Speed 28 mph    
Max Gust Speed -    
Visibility 7.7 miles    
Events      
Averages and records for this station are not official NWS values.
T = Trace of Precipitation, MM = Missing Value Source: Averaged Metar Reports

Daily Weather History Graph

Daily Weather History Graph

Search for Another Location

Airport:

Trip Planner

Search our weather history database for the weather conditions in past years. The results will help you decide how hot, cold, wet, or windy it might be!

Date:

Astronomy

Jan. 06, 2014 Rise Set
Actual Time 5:46 AM AWST 7:12 PM AWST
Civil Twilight 5:21 AM AWST 7:37 PM AWST
Nautical Twilight 4:51 AM AWST 8:06 PM AWST
Astronomical Twilight 4:20 AM AWST 8:37 PM AWST
Moon 10:38 AM AWST (1/6) 11:00 PM AWST (1/6)
Length of Visible Light 14h 15m
Length of Day
13h 26m
Waxing Crescent, 29% of the Moon is Illuminated
Jan 6
Waxing Crescent
Jan 8
First Quarter
Jan 16
Full
Jan 24
Last Quarter
Jan 31
New

Hourly Weather History & Observations

Time (AWST) Temp. Heat Index Dew Point Humidity Pressure Visibility Wind Dir Wind Speed Gust Speed Precip Events Conditions
12:00 AM 82 °F - 57 °F 32% 29.75 in - SSW 15.0 mph - -  
12:00 AM 82.4 °F 82.0 °F 57.2 °F 42% 29.74 in 6.2 mi SSW 15.0 mph - N/A   Unknown
12:30 AM 82.4 °F 82.5 °F 59.0 °F 45% 29.74 in 6.2 mi SSW 16.1 mph - N/A   Unknown
1:00 AM 80.6 °F 81.8 °F 62.6 °F 54% 29.74 in 6.2 mi SSW 16.1 mph - N/A   Unknown
1:30 AM 78.8 °F - 62.6 °F 57% 29.71 in 6.2 mi SSW 17.3 mph - N/A   Unknown
2:00 AM 78 °F - 62 °F 49% 29.74 in - SSW 15.0 mph - -  
2:00 AM 78.8 °F - 62.6 °F 57% 29.74 in 6.2 mi SSW 15.0 mph - N/A   Unknown
2:30 AM 77.0 °F - 62.6 °F 61% 29.74 in 6.2 mi SSW 12.7 mph - N/A   Unknown
3:00 AM 77 °F - 63 °F 53% 29.74 in - SSW 10.4 mph - -  
3:00 AM 77.0 °F - 62.6 °F 61% 29.74 in 6.2 mi SSW 10.4 mph - N/A   Unknown
3:30 AM 77.0 °F - 62.6 °F 61% 29.74 in 6.2 mi SW 10.4 mph - N/A   Unknown
4:00 AM 77.0 °F - 62.6 °F 61% 29.74 in 6.2 mi SSW 8.1 mph - N/A   Unknown
4:30 AM 75.2 °F - 60.8 °F 61% 29.74 in 6.2 mi SSW 5.8 mph - N/A   Unknown
5:00 AM 75 °F - 60 °F 49% 29.78 in - SW 6.9 mph - -  
5:00 AM 75.2 °F - 59.0 °F 57% 29.77 in 6.2 mi SW 6.9 mph - N/A   Unknown
5:30 AM 73.4 °F - 59.0 °F 61% 29.77 in 6.2 mi SW 8.1 mph - N/A   Unknown
6:00 AM 76 °F - 56 °F 39% 29.79 in 16 mi SW 8.1 mph - -   Haze
6:00 AM 75.2 °F - 55.4 °F 50% 29.77 in - SW 8.1 mph - N/A   Clear
6:30 AM 78.8 °F - 53.6 °F 42% 29.77 in - SW 8.1 mph - N/A   Clear
7:00 AM 84.2 °F - 50.0 °F 30% 29.80 in - SW 8.1 mph - N/A   Clear
7:30 AM 87.8 °F - 46.4 °F 24% 29.80 in - SSW 9.2 mph - N/A   Clear
8:00 AM 91 °F - 46 °F 12% 29.81 in - SSW 8.1 mph - -  
8:00 AM 91.4 °F - 46.4 °F 21% 29.80 in - SSW 8.1 mph - N/A   Clear
8:30 AM 95.0 °F - 41.0 °F 15% 29.80 in - South 9.2 mph - N/A   Clear
9:00 AM 96 °F - 37 °F 6% 29.81 in 19 mi SE 11.5 mph - -   Partly Cloudy
9:00 AM 96.8 °F - 37.4 °F 13% 29.80 in - SE 11.5 mph - N/A   Clear
9:30 AM 98.6 °F - 37.4 °F 12% 29.80 in - SSE 12.7 mph - N/A   Clear
10:00 AM 100.4 °F - 39.2 °F 12% 29.77 in - South 12.7 mph - N/A   Clear
10:30 AM 102.2 °F - 37.4 °F 11% 29.77 in - SSE 15.0 mph - N/A   Clear
11:00 AM 104 °F - 36 °F 4% 29.78 in - SSE 16.1 mph - -  
11:00 AM 104.0 °F - 35.6 °F 9% 29.77 in - SSE 16.1 mph - N/A   Clear
11:30 AM 107.6 °F - 35.6 °F 8% 29.74 in - SSE 17.3 mph - N/A   Clear
12:00 PM 108 °F - 32 °F 4% 29.75 in 19 mi SSE 17.3 mph - -   Partly Cloudy
12:00 PM 107.6 °F - 32.0 °F 7% 29.74 in - SSE 17.3 mph - N/A   Clear
12:30 PM 109.4 °F - 32.0 °F 7% 29.74 in - South 17.3 mph - N/A   Clear
1:00 PM 107.6 °F - 50.0 °F 15% 29.74 in - East 11.5 mph - N/A   Clear
1:30 PM 109.4 °F - 42.8 °F 11% 29.71 in - East 10.4 mph - N/A   Clear
2:00 PM 109 °F - 38 °F 4% 29.73 in - ENE 11.5 mph - -  
2:00 PM 109.4 °F - 39.2 °F 9% 29.71 in - ENE 11.5 mph - N/A   Clear
2:30 PM 109.4 °F - 37.4 °F 9% 29.71 in - ENE 6.9 mph - N/A   Clear
3:00 PM 112 °F - 31 °F 4% 29.70 in 19 mi SSE 12.7 mph - -   Partly Cloudy
3:00 PM 113.0 °F - 32.0 °F 6% 29.68 in - SSE 12.7 mph - N/A   Clear
3:30 PM 114.8 °F - 39.2 °F 8% 29.68 in 6.2 mi South 13.8 mph - N/A   Unknown
3:51 PM 111.2 °F - 41.0 °F 9% 29.68 in 6.2 mi SW 24.2 mph - N/A   Unknown
4:00 PM 111.2 °F - 42.8 °F 10% 29.68 in 6.2 mi SSW 24.2 mph - N/A   Unknown
4:30 PM 107.6 °F - 44.6 °F 12% 29.68 in 6.2 mi SSW 26.5 mph - N/A   Unknown
5:00 PM 105 °F - 49 °F 8% 29.70 in - SSW 25.3 mph - -  
5:00 PM 105.8 °F - 48.2 °F 14% 29.68 in 6.2 mi SSW 25.3 mph - N/A   Unknown
5:30 PM 102.2 °F - 51.8 °F 18% 29.68 in 6.2 mi SW 24.2 mph - N/A   Unknown
6:00 PM 99 °F - 50 °F 11% 29.71 in - SW 27.6 mph - -  
6:00 PM 98.6 °F - 50.0 °F 19% 29.71 in 6.2 mi SW 27.6 mph - N/A   Unknown
7:00 PM 93.2 °F - 48.2 °F 21% 29.74 in 6.2 mi SW 17.3 mph - N/A   Unknown
7:30 PM 91.4 °F - 48.2 °F 23% 29.74 in 6.2 mi WSW 13.8 mph - N/A   Unknown
8:00 PM 90 °F - 47 °F 14% 29.79 in - SSW 4.6 mph - -  
8:00 PM 89.6 °F - 48.2 °F 24% 29.77 in 6.2 mi SSW 4.6 mph - N/A   Unknown
8:30 PM 87.8 °F - 51.8 °F 29% 29.80 in 6.2 mi East 6.9 mph - N/A   Unknown
9:00 PM 86 °F - 52 °F 21% 29.82 in - South 3.5 mph - -  
9:00 PM 86.0 °F - 51.8 °F 31% 29.80 in 6.2 mi South 3.5 mph - N/A   Unknown
9:30 PM 86.0 °F 84.2 °F 53.6 °F 33% 29.80 in 6.2 mi WSW 3.5 mph - N/A   Unknown
10:00 PM 86.0 °F 84.9 °F 57.2 °F 37% 29.83 in 6.2 mi SW 10.4 mph - N/A   Unknown
10:30 PM 86.0 °F 85.4 °F 59.0 °F 40% 29.83 in 6.2 mi SW 10.4 mph - N/A   Unknown
11:00 PM 85 °F - 57 °F 28% 29.84 in - SW 9.2 mph - -  
11:00 PM 84.2 °F 83.5 °F 57.2 °F 40% 29.83 in 6.2 mi SW 9.2 mph - N/A   Unknown
11:30 PM 84.2 °F 83.0 °F 55.4 °F 37% 29.83 in 6.2 mi SW 9.2 mph - N/A   Unknown